Portada
METAR-TAF:

METAR-TAF

Aeroports :

Weno, Micronèsia

latitud: 07-28N, longitud: 151-51E, altitud: 3 m

Observació

L'informe es va fer fa 47 minuts, a les 02:55 UTC
Vent 7 kt del Nord-Est
Temperatura 29°C
Humitat 84%
Pressió 1011 hPa
Visibilitat: 22.5 km
Núvols disperses a una alçada de 1200 ft, Cumulonimbus.
Cel ennuvolat a una alçada de 12000 ft
Cel ennuvolat a una alçada de 28000 ft
xàfecs de pluja

METAR: PTKK 180255Z 04007KT 14SM -SHRA SCT012CB BKN120 BKN280 29/26 A2985 RMK SHRAB50 CB ALQDS MOV SW SLP110 60000 8/371 T02850260 57012

Hora: 13:42 (03:42 UTC)

Pronòstic

L'informe es va fer fa 4 hores i 3 minuts, a les 23:39 UTC
Pronòstic vàlid del 18 a les 00 UTC al 18 a les 24 UTC
Vent 5 kt amb direcció variable
Visibilitat: 10 km
Escasses núvols a una alçada de 1500 ft
Núvols disperses a una alçada de 4000 ft
Cel ennuvolat a una alçada de 12000 ft
xàfecs en les proximitats

TAF: PTKK 172339Z 1800/1824 VRB05KT P6SM VCSH FEW015 SCT040 BKN120

Observacions i pronòstics meteorològics de més de 4000 aeroports (METAR i TAF).

Les estacions disponibles són els punts grocs i vermells al mapa.

Posi el ratolí al punt desitjat per veure el nom de l'estació.

Feu clic per veure les observacions i els pronòstics meteorològics.

Per canviar el mapa: feu clic els botons verds amb una creu de color negre per apropar; al botó verd amb un guió per allunyar la imatge; o en les fletxes verdes per a mapes adjacents.


METAR-TAF: